sensor_id;sensor_type;location;lat;lon;timestamp;P1;durP1;ratioP1;P2;durP2;ratioP2
17079;SDS011;8655;57.106;-2.088;2023-10-19T00:00:47;9.10;;;2.87;;
17079;SDS011;8655;57.106;-2.088;2023-10-19T00:03:15;7.60;;;2.47;;
17079;SDS011;8655;57.106;-2.088;2023-10-19T00:05:41;8.97;;;2.80;;
17079;SDS011;8655;57.106;-2.088;2023-10-19T00:08:08;7.67;;;2.73;;
17079;SDS011;8655;57.106;-2.088;2023-10-19T00:10:43;7.00;;;2.53;;
17079;SDS011;8655;57.106;-2.088;2023-10-19T00:13:11;8.27;;;2.83;;
17079;SDS011;8655;57.106;-2.088;2023-10-19T00:15:41;6.43;;;2.70;;
17079;SDS011;8655;57.106;-2.088;2023-10-19T00:18:15;8.90;;;2.53;;
17079;SDS011;8655;57.106;-2.088;2023-10-19T00:20:44;5.37;;;2.60;;
17079;SDS011;8655;57.106;-2.088;2023-10-19T00:23:11;9.10;;;2.50;;
17079;SDS011;8655;57.106;-2.088;2023-10-19T00:25:44;9.03;;;2.77;;
17079;SDS011;8655;57.106;-2.088;2023-10-19T00:28:15;8.67;;;2.90;;
17079;SDS011;8655;57.106;-2.088;2023-10-19T00:30:44;9.40;;;2.83;;
17079;SDS011;8655;57.106;-2.088;2023-10-19T00:33:13;8.97;;;2.47;;
17079;SDS011;8655;57.106;-2.088;2023-10-19T00:35:43;9.20;;;2.73;;
17079;SDS011;8655;57.106;-2.088;2023-10-19T00:38:15;7.20;;;2.77;;
17079;SDS011;8655;57.106;-2.088;2023-10-19T00:40:55;9.37;;;2.70;;
17079;SDS011;8655;57.106;-2.088;2023-10-19T00:43:29;6.60;;;2.27;;
17079;SDS011;8655;57.106;-2.088;2023-10-19T00:46:03;9.70;;;2.80;;
17079;SDS011;8655;57.106;-2.088;2023-10-19T00:48:34;8.87;;;2.53;;
17079;SDS011;8655;57.106;-2.088;2023-10-19T00:51:00;6.13;;;2.23;;
17079;SDS011;8655;57.106;-2.088;2023-10-19T00:53:35;7.97;;;2.80;;
17079;SDS011;8655;57.106;-2.088;2023-10-19T00:56:03;7.47;;;2.60;;
17079;SDS011;8655;57.106;-2.088;2023-10-19T00:58:31;9.10;;;2.90;;
17079;SDS011;8655;57.106;-2.088;2023-10-19T01:01:01;8.53;;;2.43;;
17079;SDS011;8655;57.106;-2.088;2023-10-19T01:03:30;13.97;;;2.80;;
17079;SDS011;8655;57.106;-2.088;2023-10-19T01:06:00;8.27;;;2.77;;
17079;SDS011;8655;57.106;-2.088;2023-10-19T01:08:30;7.57;;;2.60;;
17079;SDS011;8655;57.106;-2.088;2023-10-19T01:11:06;8.30;;;2.50;;
17079;SDS011;8655;57.106;-2.088;2023-10-19T01:13:36;9.63;;;2.60;;
17079;SDS011;8655;57.106;-2.088;2023-10-19T01:16:02;7.77;;;3.10;;
17079;SDS011;8655;57.106;-2.088;2023-10-19T01:18:29;7.70;;;2.70;;
17079;SDS011;8655;57.106;-2.088;2023-10-19T01:20:58;9.10;;;2.80;;
17079;SDS011;8655;57.106;-2.088;2023-10-19T01:23:30;8.27;;;2.60;;
17079;SDS011;8655;57.106;-2.088;2023-10-19T01:25:57;7.50;;;2.83;;
17079;SDS011;8655;57.106;-2.088;2023-10-19T01:31:11;9.10;;;2.60;;
17079;SDS011;8655;57.106;-2.088;2023-10-19T01:33:53;10.27;;;2.93;;
17079;SDS011;8655;57.106;-2.088;2023-10-19T01:36:21;8.90;;;2.77;;
17079;SDS011;8655;57.106;-2.088;2023-10-19T01:38:47;10.37;;;3.00;;
17079;SDS011;8655;57.106;-2.088;2023-10-19T01:41:13;8.90;;;2.90;;
17079;SDS011;8655;57.106;-2.088;2023-10-19T01:43:41;8.10;;;2.77;;
17079;SDS011;8655;57.106;-2.088;2023-10-19T01:46:07;9.97;;;3.10;;
17079;SDS011;8655;57.106;-2.088;2023-10-19T01:48:40;11.00;;;3.10;;
17079;SDS011;8655;57.106;-2.088;2023-10-19T01:51:09;11.13;;;3.07;;
17079;SDS011;8655;57.106;-2.088;2023-10-19T01:53:37;9.67;;;3.00;;
17079;SDS011;8655;57.106;-2.088;2023-10-19T01:56:10;12.03;;;3.03;;
17079;SDS011;8655;57.106;-2.088;2023-10-19T01:58:37;7.63;;;2.70;;
17079;SDS011;8655;57.106;-2.088;2023-10-19T02:01:04;12.53;;;3.20;;
17079;SDS011;8655;57.106;-2.088;2023-10-19T02:03:41;9.27;;;3.70;;
17079;SDS011;8655;57.106;-2.088;2023-10-19T02:06:12;12.67;;;3.53;;
17079;SDS011;8655;57.106;-2.088;2023-10-19T02:08:46;13.37;;;3.83;;
17079;SDS011;8655;57.106;-2.088;2023-10-19T02:11:20;10.83;;;3.23;;
17079;SDS011;8655;57.106;-2.088;2023-10-19T02:13:48;14.13;;;3.40;;
17079;SDS011;8655;57.106;-2.088;2023-10-19T02:16:21;12.53;;;3.60;;
17079;SDS011;8655;57.106;-2.088;2023-10-19T02:18:48;9.43;;;3.07;;
17079;SDS011;8655;57.106;-2.088;2023-10-19T02:21:17;9.90;;;3.40;;
17079;SDS011;8655;57.106;-2.088;2023-10-19T02:23:58;9.50;;;3.27;;
17079;SDS011;8655;57.106;-2.088;2023-10-19T02:26:24;10.50;;;3.47;;
17079;SDS011;8655;57.106;-2.088;2023-10-19T02:28:53;8.83;;;3.17;;
17079;SDS011;8655;57.106;-2.088;2023-10-19T02:31:21;12.67;;;3.57;;
17079;SDS011;8655;57.106;-2.088;2023-10-19T02:33:48;14.87;;;3.80;;
17079;SDS011;8655;57.106;-2.088;2023-10-19T02:36:23;8.93;;;3.20;;
17079;SDS011;8655;57.106;-2.088;2023-10-19T02:38:48;12.37;;;3.70;;
17079;SDS011;8655;57.106;-2.088;2023-10-19T02:41:16;10.70;;;3.60;;
17079;SDS011;8655;57.106;-2.088;2023-10-19T02:43:45;12.90;;;3.33;;
17079;SDS011;8655;57.106;-2.088;2023-10-19T02:46:16;7.60;;;3.27;;
17079;SDS011;8655;57.106;-2.088;2023-10-19T02:48:45;8.93;;;3.23;;
17079;SDS011;8655;57.106;-2.088;2023-10-19T02:51:15;8.37;;;3.23;;
17079;SDS011;8655;57.106;-2.088;2023-10-19T02:53:41;11.93;;;3.10;;
17079;SDS011;8655;57.106;-2.088;2023-10-19T02:56:13;12.63;;;3.43;;
17079;SDS011;8655;57.106;-2.088;2023-10-19T02:58:43;11.53;;;3.53;;
17079;SDS011;8655;57.106;-2.088;2023-10-19T03:01:17;9.03;;;3.60;;
17079;SDS011;8655;57.106;-2.088;2023-10-19T03:03:54;8.07;;;3.00;;
17079;SDS011;8655;57.106;-2.088;2023-10-19T03:06:24;8.40;;;3.03;;
17079;SDS011;8655;57.106;-2.088;2023-10-19T03:08:51;13.90;;;3.87;;
17079;SDS011;8655;57.106;-2.088;2023-10-19T03:11:23;11.27;;;3.30;;
17079;SDS011;8655;57.106;-2.088;2023-10-19T03:13:50;9.43;;;3.30;;
17079;SDS011;8655;57.106;-2.088;2023-10-19T03:16:19;10.27;;;3.53;;
17079;SDS011;8655;57.106;-2.088;2023-10-19T03:18:46;12.07;;;3.77;;
17079;SDS011;8655;57.106;-2.088;2023-10-19T03:21:12;11.63;;;3.63;;
17079;SDS011;8655;57.106;-2.088;2023-10-19T03:23:38;11.00;;;3.57;;
17079;SDS011;8655;57.106;-2.088;2023-10-19T03:26:06;12.23;;;3.90;;
17079;SDS011;8655;57.106;-2.088;2023-10-19T03:29:03;11.53;;;3.73;;
17079;SDS011;8655;57.106;-2.088;2023-10-19T03:31:37;12.03;;;3.97;;
17079;SDS011;8655;57.106;-2.088;2023-10-19T03:34:08;9.83;;;3.60;;
17079;SDS011;8655;57.106;-2.088;2023-10-19T03:36:35;14.07;;;4.10;;
17079;SDS011;8655;57.106;-2.088;2023-10-19T03:39:01;13.13;;;3.97;;
17079;SDS011;8655;57.106;-2.088;2023-10-19T03:41:37;12.93;;;3.67;;
17079;SDS011;8655;57.106;-2.088;2023-10-19T03:44:04;12.40;;;3.40;;
17079;SDS011;8655;57.106;-2.088;2023-10-19T03:46:30;10.17;;;3.63;;
17079;SDS011;8655;57.106;-2.088;2023-10-19T03:48:59;10.53;;;3.60;;
17079;SDS011;8655;57.106;-2.088;2023-10-19T03:51:46;10.80;;;3.43;;
17079;SDS011;8655;57.106;-2.088;2023-10-19T03:54:35;11.20;;;3.40;;
17079;SDS011;8655;57.106;-2.088;2023-10-19T03:57:08;9.70;;;3.40;;
17079;SDS011;8655;57.106;-2.088;2023-10-19T03:59:41;12.93;;;3.53;;
17079;SDS011;8655;57.106;-2.088;2023-10-19T04:02:07;10.47;;;3.97;;
17079;SDS011;8655;57.106;-2.088;2023-10-19T04:04:39;14.40;;;4.43;;
17079;SDS011;8655;57.106;-2.088;2023-10-19T04:07:11;11.50;;;3.70;;
17079;SDS011;8655;57.106;-2.088;2023-10-19T04:09:56;11.67;;;3.77;;
17079;SDS011;8655;57.106;-2.088;2023-10-19T04:12:26;14.63;;;3.77;;
17079;SDS011;8655;57.106;-2.088;2023-10-19T04:14:55;11.93;;;3.40;;
17079;SDS011;8655;57.106;-2.088;2023-10-19T04:17:21;14.33;;;3.93;;
17079;SDS011;8655;57.106;-2.088;2023-10-19T04:19:49;10.97;;;3.73;;
17079;SDS011;8655;57.106;-2.088;2023-10-19T04:22:20;14.97;;;3.93;;
17079;SDS011;8655;57.106;-2.088;2023-10-19T04:24:51;11.30;;;3.60;;
17079;SDS011;8655;57.106;-2.088;2023-10-19T04:27:18;13.47;;;3.57;;
17079;SDS011;8655;57.106;-2.088;2023-10-19T04:29:48;12.93;;;3.80;;
17079;SDS011;8655;57.106;-2.088;2023-10-19T04:32:14;13.73;;;4.20;;
17079;SDS011;8655;57.106;-2.088;2023-10-19T04:34:48;9.37;;;3.60;;
17079;SDS011;8655;57.106;-2.088;2023-10-19T04:37:14;11.53;;;3.80;;
17079;SDS011;8655;57.106;-2.088;2023-10-19T04:39:43;14.47;;;4.23;;
17079;SDS011;8655;57.106;-2.088;2023-10-19T04:42:09;15.23;;;4.07;;
17079;SDS011;8655;57.106;-2.088;2023-10-19T04:44:35;15.53;;;4.33;;
17079;SDS011;8655;57.106;-2.088;2023-10-19T04:47:01;10.60;;;3.97;;
17079;SDS011;8655;57.106;-2.088;2023-10-19T04:49:26;13.43;;;4.00;;
17079;SDS011;8655;57.106;-2.088;2023-10-19T04:51:53;12.23;;;4.40;;
17079;SDS011;8655;57.106;-2.088;2023-10-19T04:54:19;10.27;;;3.90;;
17079;SDS011;8655;57.106;-2.088;2023-10-19T04:56:44;16.40;;;4.80;;
17079;SDS011;8655;57.106;-2.088;2023-10-19T04:59:10;13.43;;;3.83;;
17079;SDS011;8655;57.106;-2.088;2023-10-19T05:01:36;12.23;;;3.73;;
17079;SDS011;8655;57.106;-2.088;2023-10-19T05:04:02;13.23;;;4.20;;
17079;SDS011;8655;57.106;-2.088;2023-10-19T05:06:28;14.30;;;3.97;;
17079;SDS011;8655;57.106;-2.088;2023-10-19T05:08:54;14.67;;;4.23;;
17079;SDS011;8655;57.106;-2.088;2023-10-19T05:11:19;16.60;;;4.27;;
17079;SDS011;8655;57.106;-2.088;2023-10-19T05:13:45;13.50;;;4.50;;
17079;SDS011;8655;57.106;-2.088;2023-10-19T05:16:11;14.10;;;4.10;;
17079;SDS011;8655;57.106;-2.088;2023-10-19T05:18:37;13.63;;;4.53;;
17079;SDS011;8655;57.106;-2.088;2023-10-19T05:21:03;15.43;;;4.57;;
17079;SDS011;8655;57.106;-2.088;2023-10-19T05:23:30;15.13;;;4.37;;
17079;SDS011;8655;57.106;-2.088;2023-10-19T05:26:03;11.33;;;3.87;;
17079;SDS011;8655;57.106;-2.088;2023-10-19T05:28:29;13.93;;;4.63;;
17079;SDS011;8655;57.106;-2.088;2023-10-19T05:30:55;13.47;;;4.10;;
17079;SDS011;8655;57.106;-2.088;2023-10-19T05:33:21;15.13;;;4.10;;
17079;SDS011;8655;57.106;-2.088;2023-10-19T05:35:48;15.43;;;3.93;;
17079;SDS011;8655;57.106;-2.088;2023-10-19T05:38:15;14.13;;;4.40;;
17079;SDS011;8655;57.106;-2.088;2023-10-19T05:40:42;15.07;;;4.33;;
17079;SDS011;8655;57.106;-2.088;2023-10-19T05:43:08;14.67;;;4.50;;
17079;SDS011;8655;57.106;-2.088;2023-10-19T05:45:34;15.83;;;4.57;;
17079;SDS011;8655;57.106;-2.088;2023-10-19T05:48:01;13.13;;;4.23;;
17079;SDS011;8655;57.106;-2.088;2023-10-19T05:50:34;15.40;;;4.63;;
17079;SDS011;8655;57.106;-2.088;2023-10-19T05:53:01;16.30;;;4.73;;
17079;SDS011;8655;57.106;-2.088;2023-10-19T05:55:30;15.50;;;4.80;;
17079;SDS011;8655;57.106;-2.088;2023-10-19T05:57:56;11.33;;;4.27;;
17079;SDS011;8655;57.106;-2.088;2023-10-19T06:00:22;17.27;;;5.20;;
17079;SDS011;8655;57.106;-2.088;2023-10-19T06:02:50;15.20;;;4.93;;
17079;SDS011;8655;57.106;-2.088;2023-10-19T06:05:17;14.57;;;4.40;;
17079;SDS011;8655;57.106;-2.088;2023-10-19T06:07:47;15.13;;;4.73;;
17079;SDS011;8655;57.106;-2.088;2023-10-19T06:10:18;14.93;;;4.67;;
17079;SDS011;8655;57.106;-2.088;2023-10-19T06:12:46;16.33;;;4.67;;
17079;SDS011;8655;57.106;-2.088;2023-10-19T06:15:13;14.33;;;4.60;;
17079;SDS011;8655;57.106;-2.088;2023-10-19T06:17:40;15.23;;;5.00;;
17079;SDS011;8655;57.106;-2.088;2023-10-19T06:20:10;14.30;;;4.60;;
17079;SDS011;8655;57.106;-2.088;2023-10-19T06:22:58;14.33;;;5.03;;
17079;SDS011;8655;57.106;-2.088;2023-10-19T06:25:30;18.77;;;5.27;;
17079;SDS011;8655;57.106;-2.088;2023-10-19T06:27:57;15.73;;;5.23;;
17079;SDS011;8655;57.106;-2.088;2023-10-19T06:30:24;16.43;;;5.23;;
17079;SDS011;8655;57.106;-2.088;2023-10-19T06:32:52;17.83;;;5.47;;
17079;SDS011;8655;57.106;-2.088;2023-10-19T06:35:19;15.67;;;4.97;;
17079;SDS011;8655;57.106;-2.088;2023-10-19T06:37:46;16.97;;;4.73;;
17079;SDS011;8655;57.106;-2.088;2023-10-19T06:40:13;16.27;;;5.40;;
17079;SDS011;8655;57.106;-2.088;2023-10-19T06:42:43;19.13;;;5.40;;
17079;SDS011;8655;57.106;-2.088;2023-10-19T06:45:12;16.37;;;5.00;;
17079;SDS011;8655;57.106;-2.088;2023-10-19T06:47:43;17.50;;;5.60;;
17079;SDS011;8655;57.106;-2.088;2023-10-19T06:50:13;18.40;;;5.30;;
17079;SDS011;8655;57.106;-2.088;2023-10-19T06:52:43;15.40;;;4.93;;
17079;SDS011;8655;57.106;-2.088;2023-10-19T06:55:10;18.57;;;5.27;;
17079;SDS011;8655;57.106;-2.088;2023-10-19T06:57:40;16.33;;;5.30;;
17079;SDS011;8655;57.106;-2.088;2023-10-19T07:00:08;15.77;;;4.90;;
17079;SDS011;8655;57.106;-2.088;2023-10-19T07:02:53;17.93;;;4.87;;
17079;SDS011;8655;57.106;-2.088;2023-10-19T07:05:20;19.33;;;5.30;;
17079;SDS011;8655;57.106;-2.088;2023-10-19T07:07:48;19.73;;;4.90;;
17079;SDS011;8655;57.106;-2.088;2023-10-19T07:10:16;15.40;;;5.00;;
17079;SDS011;8655;57.106;-2.088;2023-10-19T07:13:01;22.57;;;5.67;;
17079;SDS011;8655;57.106;-2.088;2023-10-19T07:15:26;17.60;;;5.87;;
17079;SDS011;8655;57.106;-2.088;2023-10-19T07:17:54;17.93;;;5.57;;
17079;SDS011;8655;57.106;-2.088;2023-10-19T07:20:21;15.63;;;5.07;;
17079;SDS011;8655;57.106;-2.088;2023-10-19T07:22:53;16.73;;;5.63;;
17079;SDS011;8655;57.106;-2.088;2023-10-19T07:25:21;18.10;;;4.93;;
17079;SDS011;8655;57.106;-2.088;2023-10-19T07:27:50;20.17;;;5.87;;
17079;SDS011;8655;57.106;-2.088;2023-10-19T07:30:17;17.47;;;5.33;;
17079;SDS011;8655;57.106;-2.088;2023-10-19T07:32:51;15.60;;;5.07;;
17079;SDS011;8655;57.106;-2.088;2023-10-19T07:35:20;18.43;;;5.57;;
17079;SDS011;8655;57.106;-2.088;2023-10-19T07:37:47;18.33;;;5.83;;
17079;SDS011;8655;57.106;-2.088;2023-10-19T07:40:14;17.63;;;5.40;;
17079;SDS011;8655;57.106;-2.088;2023-10-19T07:42:40;20.97;;;5.73;;
17079;SDS011;8655;57.106;-2.088;2023-10-19T07:45:07;17.67;;;5.60;;
17079;SDS011;8655;57.106;-2.088;2023-10-19T07:47:37;21.13;;;5.97;;
17079;SDS011;8655;57.106;-2.088;2023-10-19T07:50:05;17.33;;;5.60;;
17079;SDS011;8655;57.106;-2.088;2023-10-19T07:52:41;20.50;;;6.23;;
17079;SDS011;8655;57.106;-2.088;2023-10-19T07:55:12;20.67;;;6.23;;
17079;SDS011;8655;57.106;-2.088;2023-10-19T07:57:38;20.13;;;5.83;;
17079;SDS011;8655;57.106;-2.088;2023-10-19T08:00:05;17.73;;;6.13;;
17079;SDS011;8655;57.106;-2.088;2023-10-19T08:02:35;22.07;;;6.03;;
17079;SDS011;8655;57.106;-2.088;2023-10-19T08:05:03;16.20;;;5.23;;
17079;SDS011;8655;57.106;-2.088;2023-10-19T08:07:29;16.23;;;5.47;;
17079;SDS011;8655;57.106;-2.088;2023-10-19T08:09:55;19.87;;;6.07;;
17079;SDS011;8655;57.106;-2.088;2023-10-19T08:12:23;17.77;;;6.00;;
17079;SDS011;8655;57.106;-2.088;2023-10-19T08:14:51;21.90;;;6.57;;
17079;SDS011;8655;57.106;-2.088;2023-10-19T08:17:17;18.80;;;5.77;;
17079;SDS011;8655;57.106;-2.088;2023-10-19T08:19:43;20.73;;;6.30;;
17079;SDS011;8655;57.106;-2.088;2023-10-19T08:22:09;20.40;;;6.60;;
17079;SDS011;8655;57.106;-2.088;2023-10-19T08:24:34;20.90;;;6.30;;
17079;SDS011;8655;57.106;-2.088;2023-10-19T08:27:00;18.27;;;6.47;;
17079;SDS011;8655;57.106;-2.088;2023-10-19T08:29:26;23.83;;;6.70;;
17079;SDS011;8655;57.106;-2.088;2023-10-19T08:31:52;20.27;;;6.00;;
17079;SDS011;8655;57.106;-2.088;2023-10-19T08:34:18;20.23;;;5.73;;
17079;SDS011;8655;57.106;-2.088;2023-10-19T08:36:45;23.97;;;7.07;;
17079;SDS011;8655;57.106;-2.088;2023-10-19T08:39:11;19.93;;;5.77;;
17079;SDS011;8655;57.106;-2.088;2023-10-19T08:41:39;20.50;;;6.47;;
17079;SDS011;8655;57.106;-2.088;2023-10-19T08:44:06;18.47;;;6.37;;
17079;SDS011;8655;57.106;-2.088;2023-10-19T08:46:42;20.23;;;6.47;;
17079;SDS011;8655;57.106;-2.088;2023-10-19T08:49:09;21.23;;;6.77;;
17079;SDS011;8655;57.106;-2.088;2023-10-19T08:51:39;22.20;;;6.80;;
17079;SDS011;8655;57.106;-2.088;2023-10-19T08:54:07;20.00;;;5.90;;
17079;SDS011;8655;57.106;-2.088;2023-10-19T08:56:36;21.13;;;6.70;;
17079;SDS011;8655;57.106;-2.088;2023-10-19T08:59:02;20.73;;;6.20;;
17079;SDS011;8655;57.106;-2.088;2023-10-19T09:01:28;20.50;;;6.50;;
17079;SDS011;8655;57.106;-2.088;2023-10-19T09:04:00;19.23;;;6.33;;
17079;SDS011;8655;57.106;-2.088;2023-10-19T09:06:27;17.53;;;5.83;;
17079;SDS011;8655;57.106;-2.088;2023-10-19T09:08:54;21.17;;;6.67;;
17079;SDS011;8655;57.106;-2.088;2023-10-19T09:11:20;19.70;;;6.50;;
17079;SDS011;8655;57.106;-2.088;2023-10-19T09:13:47;19.93;;;6.70;;
17079;SDS011;8655;57.106;-2.088;2023-10-19T09:16:17;23.37;;;7.17;;
17079;SDS011;8655;57.106;-2.088;2023-10-19T09:18:45;26.23;;;6.50;;
17079;SDS011;8655;57.106;-2.088;2023-10-19T09:21:17;22.77;;;6.70;;
17079;SDS011;8655;57.106;-2.088;2023-10-19T09:23:52;18.50;;;6.23;;
17079;SDS011;8655;57.106;-2.088;2023-10-19T09:26:19;20.27;;;6.60;;
17079;SDS011;8655;57.106;-2.088;2023-10-19T09:28:47;22.40;;;7.37;;
17079;SDS011;8655;57.106;-2.088;2023-10-19T09:31:14;22.87;;;6.43;;
17079;SDS011;8655;57.106;-2.088;2023-10-19T09:33:41;19.47;;;6.63;;
17079;SDS011;8655;57.106;-2.088;2023-10-19T09:36:09;22.00;;;6.77;;
17079;SDS011;8655;57.106;-2.088;2023-10-19T09:38:59;19.83;;;6.50;;
17079;SDS011;8655;57.106;-2.088;2023-10-19T09:41:24;23.03;;;6.73;;
17079;SDS011;8655;57.106;-2.088;2023-10-19T09:44:03;18.57;;;6.07;;
17079;SDS011;8655;57.106;-2.088;2023-10-19T09:46:34;17.53;;;5.97;;
17079;SDS011;8655;57.106;-2.088;2023-10-19T09:49:04;21.80;;;7.07;;
17079;SDS011;8655;57.106;-2.088;2023-10-19T09:51:31;20.30;;;6.80;;
17079;SDS011;8655;57.106;-2.088;2023-10-19T09:54:05;20.87;;;7.40;;
17079;SDS011;8655;57.106;-2.088;2023-10-19T09:56:40;19.40;;;6.50;;
17079;SDS011;8655;57.106;-2.088;2023-10-19T09:59:22;18.97;;;6.03;;
17079;SDS011;8655;57.106;-2.088;2023-10-19T10:02:03;20.23;;;6.60;;
17079;SDS011;8655;57.106;-2.088;2023-10-19T10:04:36;23.63;;;7.10;;
17079;SDS011;8655;57.106;-2.088;2023-10-19T10:07:02;20.97;;;7.50;;
17079;SDS011;8655;57.106;-2.088;2023-10-19T10:09:31;21.70;;;6.73;;
17079;SDS011;8655;57.106;-2.088;2023-10-19T10:12:18;22.33;;;6.73;;
17079;SDS011;8655;57.106;-2.088;2023-10-19T10:17:24;22.40;;;7.03;;
17079;SDS011;8655;57.106;-2.088;2023-10-19T10:20:28;18.87;;;6.03;;
17079;SDS011;8655;57.106;-2.088;2023-10-19T10:22:45;21.53;;;6.77;;
17079;SDS011;8655;57.106;-2.088;2023-10-19T10:25:39;19.57;;;6.93;;
17079;SDS011;8655;57.106;-2.088;2023-10-19T10:28:05;22.67;;;7.47;;
17079;SDS011;8655;57.106;-2.088;2023-10-19T10:30:34;24.80;;;7.37;;
17079;SDS011;8655;57.106;-2.088;2023-10-19T10:33:00;21.47;;;7.17;;
17079;SDS011;8655;57.106;-2.088;2023-10-19T10:38:07;24.20;;;7.13;;
17079;SDS011;8655;57.106;-2.088;2023-10-19T10:40:44;18.27;;;6.33;;
17079;SDS011;8655;57.106;-2.088;2023-10-19T10:43:12;21.77;;;7.17;;
17079;SDS011;8655;57.106;-2.088;2023-10-19T10:45:38;20.17;;;6.57;;
17079;SDS011;8655;57.106;-2.088;2023-10-19T10:48:10;21.80;;;7.17;;
17079;SDS011;8655;57.106;-2.088;2023-10-19T10:50:44;22.40;;;7.13;;
17079;SDS011;8655;57.106;-2.088;2023-10-19T10:53:12;20.73;;;7.07;;
17079;SDS011;8655;57.106;-2.088;2023-10-19T10:55:38;22.07;;;7.20;;
17079;SDS011;8655;57.106;-2.088;2023-10-19T10:58:04;21.83;;;7.47;;
17079;SDS011;8655;57.106;-2.088;2023-10-19T11:00:30;24.20;;;7.33;;
17079;SDS011;8655;57.106;-2.088;2023-10-19T11:03:01;17.47;;;6.70;;
17079;SDS011;8655;57.106;-2.088;2023-10-19T11:05:29;20.30;;;7.17;;
17079;SDS011;8655;57.106;-2.088;2023-10-19T11:10:41;16.80;;;6.63;;
17079;SDS011;8655;57.106;-2.088;2023-10-19T11:13:10;21.80;;;6.67;;
17079;SDS011;8655;57.106;-2.088;2023-10-19T11:15:37;22.83;;;6.57;;
17079;SDS011;8655;57.106;-2.088;2023-10-19T11:18:04;26.07;;;7.47;;
17079;SDS011;8655;57.106;-2.088;2023-10-19T11:20:30;23.13;;;7.43;;
17079;SDS011;8655;57.106;-2.088;2023-10-19T11:22:56;22.63;;;6.70;;
17079;SDS011;8655;57.106;-2.088;2023-10-19T11:25:26;22.63;;;6.70;;
17079;SDS011;8655;57.106;-2.088;2023-10-19T11:27:53;22.73;;;7.67;;
17079;SDS011;8655;57.106;-2.088;2023-10-19T11:30:24;24.00;;;7.37;;
17079;SDS011;8655;57.106;-2.088;2023-10-19T11:32:57;24.07;;;7.63;;
17079;SDS011;8655;57.106;-2.088;2023-10-19T11:35:28;25.10;;;7.97;;
17079;SDS011;8655;57.106;-2.088;2023-10-19T11:37:56;23.60;;;7.43;;
17079;SDS011;8655;57.106;-2.088;2023-10-19T11:40:27;22.37;;;7.20;;
17079;SDS011;8655;57.106;-2.088;2023-10-19T11:42:53;27.17;;;7.77;;
17079;SDS011;8655;57.106;-2.088;2023-10-19T11:45:24;22.03;;;7.00;;
17079;SDS011;8655;57.106;-2.088;2023-10-19T11:47:50;23.37;;;7.63;;
17079;SDS011;8655;57.106;-2.088;2023-10-19T11:50:15;26.67;;;8.13;;
17079;SDS011;8655;57.106;-2.088;2023-10-19T11:52:43;25.97;;;7.53;;
17079;SDS011;8655;57.106;-2.088;2023-10-19T11:55:11;25.57;;;7.70;;
17079;SDS011;8655;57.106;-2.088;2023-10-19T11:57:38;20.63;;;7.10;;
17079;SDS011;8655;57.106;-2.088;2023-10-19T12:00:09;21.10;;;6.60;;
17079;SDS011;8655;57.106;-2.088;2023-10-19T12:02:46;27.37;;;7.30;;
17079;SDS011;8655;57.106;-2.088;2023-10-19T12:05:12;22.77;;;7.30;;
17079;SDS011;8655;57.106;-2.088;2023-10-19T12:07:39;28.77;;;7.33;;
17079;SDS011;8655;57.106;-2.088;2023-10-19T12:10:08;23.80;;;7.60;;
17079;SDS011;8655;57.106;-2.088;2023-10-19T12:12:38;29.37;;;8.20;;
17079;SDS011;8655;57.106;-2.088;2023-10-19T12:15:04;26.50;;;7.70;;
17079;SDS011;8655;57.106;-2.088;2023-10-19T12:17:33;24.80;;;7.90;;
17079;SDS011;8655;57.106;-2.088;2023-10-19T12:19:58;24.90;;;7.07;;
17079;SDS011;8655;57.106;-2.088;2023-10-19T12:22:24;21.00;;;7.63;;
17079;SDS011;8655;57.106;-2.088;2023-10-19T12:24:56;22.60;;;7.53;;
17079;SDS011;8655;57.106;-2.088;2023-10-19T12:27:23;23.07;;;7.07;;
17079;SDS011;8655;57.106;-2.088;2023-10-19T12:29:50;23.23;;;7.30;;
17079;SDS011;8655;57.106;-2.088;2023-10-19T12:32:17;23.07;;;7.27;;
17079;SDS011;8655;57.106;-2.088;2023-10-19T12:34:43;23.87;;;7.47;;
17079;SDS011;8655;57.106;-2.088;2023-10-19T12:37:09;22.80;;;7.57;;
17079;SDS011;8655;57.106;-2.088;2023-10-19T12:39:37;22.70;;;7.27;;
17079;SDS011;8655;57.106;-2.088;2023-10-19T12:42:16;21.87;;;7.60;;
17079;SDS011;8655;57.106;-2.088;2023-10-19T12:44:42;18.83;;;6.73;;
17079;SDS011;8655;57.106;-2.088;2023-10-19T12:47:08;25.37;;;7.70;;
17079;SDS011;8655;57.106;-2.088;2023-10-19T12:49:38;25.57;;;7.50;;
17079;SDS011;8655;57.106;-2.088;2023-10-19T12:52:04;25.20;;;7.30;;
17079;SDS011;8655;57.106;-2.088;2023-10-19T12:54:32;25.00;;;7.17;;
17079;SDS011;8655;57.106;-2.088;2023-10-19T12:57:00;24.33;;;7.20;;
17079;SDS011;8655;57.106;-2.088;2023-10-19T12:59:26;26.80;;;7.40;;
17079;SDS011;8655;57.106;-2.088;2023-10-19T13:01:51;26.03;;;7.47;;
17079;SDS011;8655;57.106;-2.088;2023-10-19T13:04:22;27.33;;;7.50;;
17079;SDS011;8655;57.106;-2.088;2023-10-19T13:06:49;22.43;;;7.63;;
17079;SDS011;8655;57.106;-2.088;2023-10-19T13:09:22;25.07;;;7.60;;
17079;SDS011;8655;57.106;-2.088;2023-10-19T13:11:55;24.27;;;8.20;;
17079;SDS011;8655;57.106;-2.088;2023-10-19T13:14:22;20.87;;;7.20;;
17079;SDS011;8655;57.106;-2.088;2023-10-19T13:16:47;27.53;;;7.60;;
17079;SDS011;8655;57.106;-2.088;2023-10-19T13:19:16;23.83;;;7.70;;
17079;SDS011;8655;57.106;-2.088;2023-10-19T13:21:45;22.73;;;7.50;;
17079;SDS011;8655;57.106;-2.088;2023-10-19T13:24:14;27.73;;;8.33;;
17079;SDS011;8655;57.106;-2.088;2023-10-19T13:26:41;23.27;;;7.33;;
17079;SDS011;8655;57.106;-2.088;2023-10-19T13:29:10;24.80;;;7.23;;
17079;SDS011;8655;57.106;-2.088;2023-10-19T13:31:36;22.70;;;7.13;;
17079;SDS011;8655;57.106;-2.088;2023-10-19T13:34:02;23.03;;;7.23;;
17079;SDS011;8655;57.106;-2.088;2023-10-19T13:36:31;22.43;;;7.23;;
17079;SDS011;8655;57.106;-2.088;2023-10-19T13:38:56;25.20;;;7.23;;
17079;SDS011;8655;57.106;-2.088;2023-10-19T13:41:22;19.37;;;6.60;;
17079;SDS011;8655;57.106;-2.088;2023-10-19T13:43:47;20.93;;;7.37;;
17079;SDS011;8655;57.106;-2.088;2023-10-19T13:46:13;22.73;;;7.20;;
17079;SDS011;8655;57.106;-2.088;2023-10-19T13:48:40;23.70;;;7.03;;
17079;SDS011;8655;57.106;-2.088;2023-10-19T13:51:05;18.87;;;7.10;;
17079;SDS011;8655;57.106;-2.088;2023-10-19T13:53:38;20.67;;;6.83;;
17079;SDS011;8655;57.106;-2.088;2023-10-19T13:56:07;22.07;;;7.20;;
17079;SDS011;8655;57.106;-2.088;2023-10-19T13:58:36;21.90;;;7.03;;
17079;SDS011;8655;57.106;-2.088;2023-10-19T14:01:02;24.97;;;7.50;;
17079;SDS011;8655;57.106;-2.088;2023-10-19T14:03:31;21.03;;;6.37;;
17079;SDS011;8655;57.106;-2.088;2023-10-19T14:05:57;20.40;;;7.23;;
17079;SDS011;8655;57.106;-2.088;2023-10-19T14:08:23;21.77;;;6.70;;
17079;SDS011;8655;57.106;-2.088;2023-10-19T14:10:48;21.33;;;6.20;;
17079;SDS011;8655;57.106;-2.088;2023-10-19T14:13:14;18.10;;;6.57;;
17079;SDS011;8655;57.106;-2.088;2023-10-19T14:15:40;21.60;;;6.50;;
17079;SDS011;8655;57.106;-2.088;2023-10-19T14:18:07;21.57;;;7.13;;
17079;SDS011;8655;57.106;-2.088;2023-10-19T14:20:34;23.33;;;6.83;;
17079;SDS011;8655;57.106;-2.088;2023-10-19T14:23:00;22.77;;;7.00;;
17079;SDS011;8655;57.106;-2.088;2023-10-19T14:25:30;20.57;;;6.80;;
17079;SDS011;8655;57.106;-2.088;2023-10-19T14:27:56;18.33;;;6.87;;
17079;SDS011;8655;57.106;-2.088;2023-10-19T14:30:25;20.63;;;6.70;;
17079;SDS011;8655;57.106;-2.088;2023-10-19T14:32:53;24.10;;;7.57;;
17079;SDS011;8655;57.106;-2.088;2023-10-19T14:35:20;24.77;;;7.23;;
17079;SDS011;8655;57.106;-2.088;2023-10-19T14:37:47;19.93;;;7.17;;
17079;SDS011;8655;57.106;-2.088;2023-10-19T14:40:15;23.00;;;6.63;;
17079;SDS011;8655;57.106;-2.088;2023-10-19T14:42:46;20.07;;;6.30;;
17079;SDS011;8655;57.106;-2.088;2023-10-19T14:45:13;22.07;;;6.83;;
17079;SDS011;8655;57.106;-2.088;2023-10-19T14:47:41;17.20;;;6.90;;
17079;SDS011;8655;57.106;-2.088;2023-10-19T14:50:11;21.73;;;6.90;;
17079;SDS011;8655;57.106;-2.088;2023-10-19T14:52:40;18.33;;;6.43;;
17079;SDS011;8655;57.106;-2.088;2023-10-19T14:55:07;21.90;;;7.23;;
17079;SDS011;8655;57.106;-2.088;2023-10-19T14:57:40;19.37;;;6.50;;